createdAt,value
2023-03-17T00:00:48.431Z,88.34
2023-03-17T00:03:25.810Z,88.53
2023-03-17T00:05:55.579Z,89.18
2023-03-17T00:08:27.716Z,89.31
2023-03-17T00:10:59.288Z,88.52
2023-03-17T00:13:28.490Z,90.13
2023-03-17T00:16:01.476Z,90.51
2023-03-17T00:18:33.562Z,90.06
2023-03-17T00:21:02.623Z,89.61
2023-03-17T00:23:31.684Z,89.59
2023-03-17T00:26:00.665Z,89.47
2023-03-17T00:28:29.540Z,90.18
2023-03-17T00:31:01.815Z,89.59
2023-03-17T00:33:35.013Z,90.05
2023-03-17T00:36:04.167Z,88.75
2023-03-17T00:38:33.334Z,90.18
2023-03-17T00:41:03.259Z,90.15
2023-03-17T00:43:32.735Z,90.47
2023-03-17T00:46:11.052Z,90.45
2023-03-17T00:48:43.583Z,90.71
2023-03-17T00:51:14.007Z,91.02
2023-03-17T00:53:43.310Z,89.76
2023-03-17T00:56:15.727Z,90.45
2023-03-17T00:58:45.333Z,90.08
2023-03-17T01:01:14.738Z,91.28
2023-03-17T01:03:45.870Z,89.91
2023-03-17T01:06:17.737Z,90.59
2023-03-17T01:08:47.488Z,90.80
2023-03-17T01:11:19.075Z,91.55
2023-03-17T01:13:49.580Z,91.13
2023-03-17T01:16:18.681Z,91.78
2023-03-17T01:18:49.453Z,91.44
2023-03-17T01:21:18.554Z,92.75
2023-03-17T01:23:48.336Z,93.40
2023-03-17T01:26:17.455Z,93.42
2023-03-17T01:28:48.673Z,92.97
2023-03-17T01:31:18.241Z,93.06
2023-03-17T01:33:51.327Z,94.00
2023-03-17T01:36:20.744Z,93.54
2023-03-17T01:38:50.936Z,93.50
2023-03-17T01:41:20.869Z,94.59
2023-03-17T01:43:50.183Z,92.80
2023-03-17T01:46:25.341Z,93.79
2023-03-17T01:49:06.347Z,93.59
2023-03-17T01:51:40.335Z,93.21
2023-03-17T01:54:17.257Z,93.28
2023-03-17T01:56:50.373Z,92.62
2023-03-17T01:59:25.226Z,92.76
2023-03-17T02:02:00.372Z,92.21
2023-03-17T02:04:31.630Z,91.61
2023-03-17T02:07:00.993Z,92.70
2023-03-17T02:09:30.223Z,93.72
2023-03-17T02:12:01.664Z,94.56
2023-03-17T02:14:31.302Z,94.27
2023-03-17T02:17:00.802Z,93.46
2023-03-17T02:19:31.487Z,95.00
2023-03-17T02:22:04.184Z,95.63
2023-03-17T02:24:36.466Z,94.94
2023-03-17T02:27:13.071Z,93.29
2023-03-17T02:29:42.493Z,94.14
2023-03-17T02:32:14.622Z,92.63
2023-03-17T02:34:43.515Z,94.19
2023-03-17T02:37:14.609Z,93.15
2023-03-17T02:39:43.694Z,93.70
2023-03-17T02:42:14.079Z,93.40
2023-03-17T02:44:43.950Z,92.99
2023-03-17T02:47:14.266Z,94.57
2023-03-17T02:49:44.228Z,92.42
2023-03-17T02:52:17.160Z,93.83
2023-03-17T02:54:46.190Z,94.46
2023-03-17T02:57:15.035Z,93.99
2023-03-17T02:59:44.678Z,93.74
2023-03-17T03:02:14.453Z,94.27
2023-03-17T03:04:43.490Z,93.44
2023-03-17T03:07:12.940Z,94.40
2023-03-17T03:09:43.155Z,94.13
2023-03-17T03:12:12.036Z,93.87
2023-03-17T03:14:41.055Z,93.26
2023-03-17T03:17:10.776Z,93.68
2023-03-17T03:19:39.856Z,92.94
2023-03-17T03:22:09.000Z,93.06
2023-03-17T03:24:42.627Z,94.02
2023-03-17T03:27:12.150Z,93.95
2023-03-17T03:29:41.804Z,94.79
2023-03-17T03:32:11.211Z,96.72
2023-03-17T03:34:40.172Z,97.63
2023-03-17T03:37:09.536Z,96.62
2023-03-17T03:39:39.215Z,97.37
2023-03-17T03:42:09.806Z,95.35
2023-03-17T03:44:39.050Z,95.35
2023-03-17T03:47:08.343Z,95.76
2023-03-17T03:49:37.292Z,94.89
2023-03-17T03:52:07.849Z,95.88
2023-03-17T03:54:37.195Z,97.25
2023-03-17T03:57:07.204Z,98.18
2023-03-17T03:59:38.254Z,99.37
2023-03-17T04:02:09.817Z,98.62
2023-03-17T04:04:38.909Z,98.81
2023-03-17T04:07:08.270Z,98.87
2023-03-17T04:09:37.717Z,98.37
2023-03-17T04:12:08.578Z,98.66
2023-03-17T04:14:39.024Z,98.01
2023-03-17T04:17:09.055Z,98.63
2023-03-17T04:19:38.210Z,99.59
2023-03-17T04:22:09.150Z,99.73
2023-03-17T04:24:40.503Z,100.00
2023-03-17T04:27:09.998Z,98.76
2023-03-17T04:29:40.195Z,97.52
2023-03-17T04:32:09.652Z,97.26
2023-03-17T04:34:38.604Z,98.28
2023-03-17T04:37:08.203Z,99.55
2023-03-17T04:39:37.120Z,100.00
2023-03-17T04:42:06.236Z,100.00
2023-03-17T04:44:35.464Z,100.00
2023-03-17T04:47:08.390Z,98.74
2023-03-17T04:49:37.867Z,100.00
2023-03-17T04:52:07.196Z,100.00
2023-03-17T04:54:36.556Z,99.99
2023-03-17T04:57:05.644Z,100.00
2023-03-17T04:59:34.625Z,100.00
2023-03-17T05:02:07.887Z,99.76
2023-03-17T05:04:36.785Z,100.00
2023-03-17T05:07:05.980Z,100.00
2023-03-17T05:09:37.947Z,99.95
2023-03-17T05:12:09.187Z,97.90
2023-03-17T05:14:38.172Z,98.26
2023-03-17T05:17:08.660Z,99.11
2023-03-17T05:19:37.537Z,98.73
2023-03-17T05:22:06.607Z,100.00
2023-03-17T05:24:35.565Z,98.57
2023-03-17T05:27:06.874Z,97.80
2023-03-17T05:29:35.785Z,97.39
2023-03-17T05:32:05.917Z,98.34
2023-03-17T05:34:38.955Z,96.64
2023-03-17T05:37:07.874Z,97.47
2023-03-17T05:39:36.853Z,99.40
2023-03-17T05:42:06.268Z,99.95
2023-03-17T05:44:35.524Z,98.23
2023-03-17T05:47:04.176Z,98.37
2023-03-17T05:49:38.526Z,98.58
2023-03-17T05:52:07.617Z,96.75
2023-03-17T05:54:36.555Z,99.48
2023-03-17T05:57:07.985Z,100.00
2023-03-17T05:59:37.152Z,100.00
2023-03-17T06:02:08.885Z,100.00
2023-03-17T06:04:40.304Z,100.00
2023-03-17T06:07:10.519Z,100.00
2023-03-17T06:09:40.127Z,100.00
2023-03-17T06:12:09.932Z,100.00
2023-03-17T06:14:40.782Z,100.00
2023-03-17T06:17:12.538Z,97.51
2023-03-17T06:19:42.789Z,95.45
2023-03-17T06:22:12.118Z,94.31
2023-03-17T06:24:41.282Z,95.41
2023-03-17T06:27:11.010Z,98.17
2023-03-17T06:29:39.777Z,98.80
2023-03-17T06:32:19.703Z,97.48
2023-03-17T06:34:53.854Z,97.38
2023-03-17T06:37:22.715Z,97.45
2023-03-17T06:39:51.460Z,97.63
2023-03-17T06:42:20.296Z,98.19
2023-03-17T06:44:52.310Z,98.80
2023-03-17T06:47:21.043Z,100.00
2023-03-17T06:49:49.802Z,98.60
2023-03-17T06:52:19.856Z,96.60
2023-03-17T06:54:48.607Z,95.30
2023-03-17T06:57:17.670Z,95.93
2023-03-17T06:59:49.607Z,96.18
2023-03-17T07:02:18.343Z,95.28
2023-03-17T07:04:52.104Z,94.28
2023-03-17T07:07:21.972Z,95.34
2023-03-17T07:09:51.545Z,96.20
2023-03-17T07:12:20.149Z,96.77
2023-03-17T07:14:48.815Z,95.67
2023-03-17T07:17:17.203Z,95.79
2023-03-17T07:19:45.704Z,95.78
2023-03-17T07:22:14.243Z,96.91
2023-03-17T07:24:44.947Z,97.16
2023-03-17T07:27:14.501Z,96.12
2023-03-17T07:29:42.868Z,95.13
2023-03-17T07:32:11.623Z,96.52
2023-03-17T07:34:40.063Z,95.05
2023-03-17T07:37:08.614Z,95.12
2023-03-17T07:39:38.041Z,93.75
2023-03-17T07:42:08.365Z,94.24
2023-03-17T07:44:40.864Z,95.71
2023-03-17T07:47:10.223Z,96.47
2023-03-17T07:49:42.092Z,96.17
2023-03-17T07:52:12.826Z,95.75
2023-03-17T07:54:43.095Z,95.56
2023-03-17T07:57:16.642Z,93.96
2023-03-17T07:59:46.086Z,94.92
2023-03-17T08:02:16.121Z,96.52
2023-03-17T08:04:47.584Z,97.87
2023-03-17T08:07:16.768Z,97.73
2023-03-17T08:09:46.556Z,97.40
2023-03-17T08:12:17.322Z,97.18
2023-03-17T08:14:46.946Z,97.92
2023-03-17T08:17:17.175Z,96.81
2023-03-17T08:19:47.111Z,95.51
2023-03-17T08:22:16.628Z,93.00
2023-03-17T08:24:45.787Z,89.94
2023-03-17T08:27:15.361Z,90.31
2023-03-17T08:29:45.893Z,91.31
2023-03-17T08:32:18.272Z,90.19
2023-03-17T08:34:49.611Z,90.04
2023-03-17T08:37:19.052Z,89.33
2023-03-17T08:39:48.428Z,88.38
2023-03-17T08:42:17.686Z,88.44
2023-03-17T08:44:48.665Z,88.26
2023-03-17T08:47:18.368Z,88.86
2023-03-17T08:49:49.746Z,87.74
2023-03-17T08:52:19.247Z,86.90
2023-03-17T08:54:48.938Z,87.01
2023-03-17T08:57:20.889Z,85.04
2023-03-17T08:59:52.762Z,84.71
2023-03-17T09:02:22.588Z,86.62
2023-03-17T09:04:52.043Z,85.67
2023-03-17T09:07:22.326Z,85.03
2023-03-17T09:09:52.097Z,86.00
2023-03-17T09:12:22.317Z,84.08
2023-03-17T09:14:53.368Z,84.50
2023-03-17T09:17:22.567Z,83.46
2023-03-17T09:19:51.746Z,83.05
2023-03-17T09:22:20.997Z,82.94
2023-03-17T09:24:53.418Z,83.62
2023-03-17T09:27:27.177Z,81.70
2023-03-17T09:29:58.086Z,80.81
2023-03-17T09:32:27.442Z,81.34
2023-03-17T09:34:57.998Z,79.28
2023-03-17T09:37:27.028Z,77.78
2023-03-17T09:39:59.611Z,78.93
2023-03-17T09:42:39.114Z,77.44
2023-03-17T09:45:36.239Z,73.08
2023-03-17T09:48:27.784Z,73.50
2023-03-17T09:51:04.004Z,72.32
2023-03-17T09:53:36.516Z,69.82
2023-03-17T09:56:16.092Z,70.73
2023-03-17T09:59:02.659Z,72.47
2023-03-17T10:01:44.602Z,73.51
2023-03-17T10:04:20.353Z,73.11
2023-03-17T10:07:00.530Z,73.00
2023-03-17T10:09:37.251Z,71.79
2023-03-17T10:12:18.647Z,73.20
2023-03-17T10:14:57.885Z,73.13
2023-03-17T10:17:33.095Z,73.09
2023-03-17T10:20:05.930Z,72.39
2023-03-17T10:22:38.944Z,72.68
2023-03-17T10:25:15.892Z,70.43
2023-03-17T10:27:48.270Z,69.55
2023-03-17T10:30:18.485Z,68.17
2023-03-17T10:32:53.221Z,67.87
2023-03-17T10:35:25.196Z,68.36
2023-03-17T10:38:08.053Z,69.70
2023-03-17T10:40:47.368Z,70.90
2023-03-17T10:43:22.040Z,71.20
2023-03-17T10:45:59.885Z,70.16
2023-03-17T10:48:30.936Z,70.87
2023-03-17T10:51:00.309Z,71.63
2023-03-17T10:53:29.622Z,71.96
2023-03-17T10:56:01.017Z,72.35
2023-03-17T10:58:37.742Z,71.90
2023-03-17T11:01:09.076Z,71.76
2023-03-17T11:03:42.010Z,71.79
2023-03-17T11:06:12.346Z,72.46
2023-03-17T11:08:42.873Z,73.54
2023-03-17T11:11:23.327Z,74.22
2023-03-17T11:13:52.846Z,74.40
2023-03-17T11:16:23.653Z,74.46
2023-03-17T11:18:56.707Z,73.58
2023-03-17T11:21:28.989Z,74.26
2023-03-17T11:24:04.667Z,74.91
2023-03-17T11:26:39.836Z,75.50
2023-03-17T11:29:22.847Z,74.78
2023-03-17T11:31:57.653Z,74.58
2023-03-17T11:34:32.481Z,75.12
2023-03-17T11:37:07.135Z,74.48
2023-03-17T11:39:43.299Z,75.15
2023-03-17T11:42:17.219Z,75.15
2023-03-17T11:45:01.545Z,73.96
2023-03-17T11:47:36.469Z,74.53
2023-03-17T11:50:12.478Z,74.32
2023-03-17T11:52:51.128Z,73.95
2023-03-17T11:55:24.531Z,74.62
2023-03-17T11:57:57.222Z,74.17
2023-03-17T12:00:30.162Z,73.25
2023-03-17T12:03:02.349Z,73.87
2023-03-17T12:05:36.263Z,73.88
2023-03-17T12:08:12.112Z,73.70
2023-03-17T12:10:45.393Z,73.03
2023-03-17T12:13:16.792Z,71.60
2023-03-17T12:15:47.614Z,71.81
2023-03-17T12:18:20.787Z,72.69
2023-03-17T12:20:54.230Z,72.44
2023-03-17T12:23:30.297Z,73.08
2023-03-17T12:26:06.399Z,73.04
2023-03-17T12:28:38.065Z,71.90
2023-03-17T12:31:08.939Z,73.05
2023-03-17T12:33:47.948Z,73.89
2023-03-17T12:36:19.162Z,73.79
2023-03-17T12:38:52.004Z,74.22
2023-03-17T12:41:37.713Z,73.92
2023-03-17T12:44:08.500Z,73.68
2023-03-17T12:46:49.192Z,74.82
2023-03-17T12:49:40.976Z,74.77
2023-03-17T12:52:27.168Z,75.90
2023-03-17T12:54:56.307Z,75.79
2023-03-17T12:57:29.918Z,76.05
2023-03-17T13:00:02.380Z,76.66
2023-03-17T13:02:38.271Z,76.65
2023-03-17T13:05:09.263Z,77.18
2023-03-17T13:07:43.134Z,76.77
2023-03-17T13:10:14.651Z,76.34
2023-03-17T13:13:05.974Z,76.80
2023-03-17T13:15:52.354Z,77.25
2023-03-17T13:18:29.326Z,77.46
2023-03-17T13:21:13.636Z,77.63
2023-03-17T13:23:45.845Z,76.46
2023-03-17T13:26:16.337Z,76.65
2023-03-17T13:28:47.679Z,76.94
2023-03-17T13:31:33.173Z,77.16
2023-03-17T13:34:14.489Z,78.77
2023-03-17T13:36:57.920Z,78.20
2023-03-17T13:39:49.202Z,77.33
2023-03-17T13:42:35.879Z,78.75
2023-03-17T13:45:28.426Z,77.97
2023-03-17T13:48:19.142Z,78.87
2023-03-17T13:50:48.201Z,77.96
2023-03-17T13:53:17.265Z,77.78
2023-03-17T13:56:06.306Z,77.05
2023-03-17T13:58:35.856Z,76.87
2023-03-17T14:01:09.116Z,77.22
2023-03-17T14:03:41.423Z,77.78
2023-03-17T14:06:14.700Z,78.69
2023-03-17T14:08:49.464Z,78.75
2023-03-17T14:11:24.094Z,78.91
2023-03-17T14:13:57.381Z,78.10
2023-03-17T14:16:29.495Z,77.95
2023-03-17T14:19:01.774Z,78.60
2023-03-17T14:21:32.322Z,78.72
2023-03-17T14:24:02.782Z,78.74
2023-03-17T14:26:33.431Z,78.88
2023-03-17T14:29:06.215Z,79.28
2023-03-17T14:31:35.231Z,79.10
2023-03-17T14:34:04.843Z,78.92
2023-03-17T14:36:36.012Z,79.41
2023-03-17T14:39:05.387Z,76.98
2023-03-17T14:41:36.279Z,76.58
2023-03-17T14:44:05.397Z,77.02
2023-03-17T14:46:38.745Z,76.53
2023-03-17T14:49:16.046Z,76.50
2023-03-17T14:51:45.440Z,75.26
2023-03-17T14:54:16.132Z,73.04
2023-03-17T14:56:48.045Z,74.51
2023-03-17T14:59:19.589Z,75.60
2023-03-17T15:01:49.118Z,74.26
2023-03-17T15:04:20.571Z,72.88
2023-03-17T15:06:50.694Z,72.42
2023-03-17T15:09:20.872Z,73.93
2023-03-17T15:11:51.153Z,73.52
2023-03-17T15:14:30.051Z,74.83
2023-03-17T15:17:03.128Z,74.46
2023-03-17T15:19:39.466Z,76.09
2023-03-17T15:22:23.880Z,75.89
2023-03-17T15:24:53.868Z,76.31
2023-03-17T15:27:24.346Z,76.20
2023-03-17T15:29:56.951Z,75.82
2023-03-17T15:32:32.048Z,76.61
2023-03-17T15:35:02.494Z,76.35
2023-03-17T15:37:33.123Z,77.05
2023-03-17T15:40:05.601Z,79.03
2023-03-17T15:42:37.090Z,80.08
2023-03-17T15:45:06.806Z,79.06
2023-03-17T15:47:36.886Z,79.20
2023-03-17T15:50:15.068Z,78.51
2023-03-17T15:52:44.375Z,80.48
2023-03-17T15:55:17.853Z,80.41
2023-03-17T15:57:55.228Z,79.41
2023-03-17T16:00:30.813Z,80.18
2023-03-17T16:03:01.522Z,80.68
2023-03-17T16:05:33.686Z,81.36
2023-03-17T16:08:05.159Z,83.54
2023-03-17T16:10:34.463Z,83.90
2023-03-17T16:13:05.408Z,85.14
2023-03-17T16:15:37.932Z,86.25
2023-03-17T16:18:08.896Z,87.14
2023-03-17T16:20:41.272Z,87.25
2023-03-17T16:23:16.336Z,87.60
2023-03-17T16:25:46.185Z,87.77
2023-03-17T16:28:18.232Z,87.67
2023-03-17T16:30:48.515Z,87.84
2023-03-17T16:33:18.911Z,87.30
2023-03-17T16:35:48.832Z,87.87
2023-03-17T16:38:19.355Z,87.77
2023-03-17T16:40:49.602Z,88.28
2023-03-17T16:43:25.440Z,88.37
2023-03-17T16:45:55.863Z,88.47
2023-03-17T16:48:27.575Z,87.51
2023-03-17T16:50:57.456Z,85.95
2023-03-17T16:53:26.594Z,86.60
2023-03-17T16:55:58.778Z,87.22
2023-03-17T16:58:30.976Z,88.03
2023-03-17T17:01:01.372Z,87.79
2023-03-17T17:03:37.995Z,86.50
2023-03-17T17:06:08.792Z,87.10
2023-03-17T17:08:38.091Z,87.43
2023-03-17T17:11:07.458Z,86.60
2023-03-17T17:13:39.284Z,85.99
2023-03-17T17:16:18.705Z,86.31
2023-03-17T17:18:48.770Z,85.67
2023-03-17T17:21:18.238Z,85.88
2023-03-17T17:23:47.887Z,85.94
2023-03-17T17:26:17.406Z,85.70
2023-03-17T17:28:48.370Z,85.79
2023-03-17T17:31:18.248Z,86.23
2023-03-17T17:33:48.863Z,86.50
2023-03-17T17:36:19.153Z,86.91
2023-03-17T17:38:48.227Z,87.77
2023-03-17T17:41:21.549Z,87.10
2023-03-17T17:43:56.184Z,88.36
2023-03-17T17:46:27.849Z,88.66
2023-03-17T17:49:01.146Z,88.33
2023-03-17T17:51:31.129Z,89.12
2023-03-17T17:54:01.409Z,89.79
2023-03-17T17:56:30.921Z,89.93
2023-03-17T17:59:01.960Z,89.00
2023-03-17T18:01:31.413Z,87.39
2023-03-17T18:04:01.025Z,86.53
2023-03-17T18:06:29.911Z,87.53
2023-03-17T18:08:59.960Z,88.52
2023-03-17T18:11:31.566Z,88.81
2023-03-17T18:14:02.356Z,89.17
2023-03-17T18:16:32.076Z,87.83
2023-03-17T18:19:02.375Z,86.42
2023-03-17T18:21:32.263Z,84.48
2023-03-17T18:24:02.094Z,85.13
2023-03-17T18:26:33.165Z,86.69
2023-03-17T18:29:03.848Z,87.21
2023-03-17T18:31:34.888Z,87.69
2023-03-17T18:34:06.866Z,87.43
2023-03-17T18:36:36.490Z,88.45
2023-03-17T18:39:06.374Z,88.90
2023-03-17T18:41:36.419Z,86.42
2023-03-17T18:44:07.703Z,86.23
2023-03-17T18:46:37.204Z,86.94
2023-03-17T18:49:09.966Z,86.45
2023-03-17T18:51:42.477Z,84.37
2023-03-17T18:54:13.883Z,87.05
2023-03-17T18:56:43.260Z,88.34
2023-03-17T18:59:14.114Z,88.56
2023-03-17T19:01:43.648Z,88.34
2023-03-17T19:04:14.292Z,88.68
2023-03-17T19:06:44.008Z,89.41
2023-03-17T19:09:13.530Z,90.23
2023-03-17T19:11:43.286Z,90.39
2023-03-17T19:14:14.136Z,90.52
2023-03-17T19:16:42.991Z,90.90
2023-03-17T19:19:12.366Z,90.18
2023-03-17T19:21:42.162Z,90.86
2023-03-17T19:24:12.380Z,90.79
2023-03-17T19:26:41.998Z,90.86
2023-03-17T19:29:15.669Z,90.63
2023-03-17T19:31:47.383Z,90.16
2023-03-17T19:34:18.159Z,90.17
2023-03-17T19:36:48.317Z,90.50
2023-03-17T19:39:18.054Z,89.17
2023-03-17T19:41:53.315Z,89.58
2023-03-17T19:44:24.173Z,89.61
2023-03-17T19:46:55.945Z,89.64
2023-03-17T19:49:24.975Z,88.78
2023-03-17T19:51:54.222Z,89.13
2023-03-17T19:54:25.596Z,88.70
2023-03-17T19:56:55.007Z,88.75
2023-03-17T19:59:26.039Z,89.16
2023-03-17T20:01:59.288Z,89.04
2023-03-17T20:04:28.608Z,87.98
2023-03-17T20:06:58.226Z,87.75
2023-03-17T20:09:28.662Z,88.47
2023-03-17T20:11:58.198Z,88.70
2023-03-17T20:14:30.703Z,88.75
2023-03-17T20:16:59.947Z,88.47
2023-03-17T20:19:29.654Z,86.49
2023-03-17T20:21:59.887Z,86.09
2023-03-17T20:24:31.641Z,85.58
2023-03-17T20:27:05.299Z,85.26
2023-03-17T20:29:38.721Z,85.74
2023-03-17T20:32:08.092Z,85.84
2023-03-17T20:34:37.344Z,85.72
2023-03-17T20:37:08.842Z,86.64
2023-03-17T20:39:38.040Z,86.35
2023-03-17T20:42:14.571Z,86.84
2023-03-17T20:44:45.838Z,87.46
2023-03-17T20:47:15.192Z,88.49
2023-03-17T20:49:44.463Z,88.72
2023-03-17T20:52:15.149Z,88.78
2023-03-17T20:54:45.666Z,88.75
2023-03-17T20:57:16.207Z,89.05
2023-03-17T20:59:46.762Z,89.58
2023-03-17T21:02:17.655Z,88.78
2023-03-17T21:04:49.102Z,88.23
2023-03-17T21:07:18.768Z,87.96
2023-03-17T21:09:48.342Z,87.83
2023-03-17T21:12:21.610Z,87.65
2023-03-17T21:14:54.347Z,87.05
2023-03-17T21:17:24.631Z,86.19
2023-03-17T21:19:56.756Z,86.45
2023-03-17T21:22:25.769Z,86.62
2023-03-17T21:24:55.472Z,88.22
2023-03-17T21:27:26.097Z,87.92
2023-03-17T21:29:59.360Z,86.82
2023-03-17T21:32:29.886Z,87.54
2023-03-17T21:34:59.264Z,88.43
2023-03-17T21:37:29.203Z,89.10
2023-03-17T21:39:58.784Z,89.13
2023-03-17T21:42:27.944Z,91.25
2023-03-17T21:44:58.812Z,92.93
2023-03-17T21:47:30.377Z,93.74
2023-03-17T21:50:00.292Z,94.17
2023-03-17T21:52:29.473Z,95.20
2023-03-17T21:54:58.677Z,95.25
2023-03-17T21:57:29.722Z,95.76
2023-03-17T21:59:59.984Z,96.16
2023-03-17T22:02:28.599Z,96.53
2023-03-17T22:04:57.727Z,96.66
2023-03-17T22:07:26.602Z,97.18
2023-03-17T22:09:57.147Z,96.88
2023-03-17T22:12:26.114Z,97.18
2023-03-17T22:14:57.774Z,97.23
2023-03-17T22:17:28.474Z,97.60
2023-03-17T22:19:57.937Z,97.46
2023-03-17T22:22:29.982Z,96.85
2023-03-17T22:24:59.270Z,97.44
2023-03-17T22:27:28.572Z,97.71
2023-03-17T22:29:57.690Z,98.03
2023-03-17T22:32:28.421Z,98.30
2023-03-17T22:34:57.774Z,98.38
2023-03-17T22:37:28.646Z,97.99
2023-03-17T22:40:02.563Z,98.54
2023-03-17T22:42:32.351Z,98.63
2023-03-17T22:45:01.679Z,98.54
2023-03-17T22:47:32.403Z,97.99
2023-03-17T22:50:01.604Z,97.36
2023-03-17T22:52:31.725Z,97.81
2023-03-17T22:55:01.747Z,97.92
2023-03-17T22:57:30.694Z,98.63
2023-03-17T22:59:59.482Z,99.40
2023-03-17T23:02:28.531Z,99.26
2023-03-17T23:04:58.976Z,98.05
2023-03-17T23:07:30.338Z,98.30
2023-03-17T23:09:59.434Z,99.58
2023-03-17T23:12:28.690Z,100.00
2023-03-17T23:14:58.483Z,100.00
2023-03-17T23:17:28.663Z,100.00
2023-03-17T23:19:59.482Z,99.53
2023-03-17T23:22:28.502Z,99.40
2023-03-17T23:24:57.727Z,99.72
2023-03-17T23:27:27.167Z,99.86
2023-03-17T23:29:57.207Z,100.00
2023-03-17T23:32:26.697Z,100.00
2023-03-17T23:34:55.855Z,100.00
2023-03-17T23:37:27.491Z,100.00
2023-03-17T23:39:57.045Z,100.00
2023-03-17T23:42:26.294Z,100.00
2023-03-17T23:44:55.360Z,100.00
2023-03-17T23:47:24.202Z,100.00
2023-03-17T23:49:53.459Z,100.00
2023-03-17T23:52:23.286Z,100.00
2023-03-17T23:54:53.762Z,100.00
2023-03-17T23:57:24.264Z,100.00
2023-03-17T23:59:53.630Z,100.00
